sensor_id;sensor_type;location;lat;lon;timestamp;pressure;altitude;pressure_sealevel;temperature;humidity
68380;BME280;57711;53.196;19.638;2023-05-16T00:01:18;99049.02;;;13.67;58.71
68380;BME280;57711;53.196;19.638;2023-05-16T00:03:45;99053.20;;;13.65;58.84
68380;BME280;57711;53.196;19.638;2023-05-16T00:06:12;99053.90;;;13.62;58.95
68380;BME280;57711;53.196;19.638;2023-05-16T00:08:39;99056.70;;;13.62;58.89
68380;BME280;57711;53.196;19.638;2023-05-16T00:11:07;99054.08;;;13.60;58.82
68380;BME280;57711;53.196;19.638;2023-05-16T00:13:34;99057.27;;;13.58;58.70
68380;BME280;57711;53.196;19.638;2023-05-16T00:16:19;99058.54;;;13.55;58.93
68380;BME280;57711;53.196;19.638;2023-05-16T00:18:47;99056.30;;;13.53;58.89
68380;BME280;57711;53.196;19.638;2023-05-16T00:21:15;99056.91;;;13.54;58.92
68380;BME280;57711;53.196;19.638;2023-05-16T00:23:43;99059.45;;;13.55;59.13
68380;BME280;57711;53.196;19.638;2023-05-16T00:26:10;99059.59;;;13.56;58.98
68380;BME280;57711;53.196;19.638;2023-05-16T00:28:38;99057.61;;;13.55;59.02
68380;BME280;57711;53.196;19.638;2023-05-16T00:31:05;99058.38;;;13.56;59.15
68380;BME280;57711;53.196;19.638;2023-05-16T00:33:33;99061.20;;;13.54;59.15
68380;BME280;57711;53.196;19.638;2023-05-16T00:36:00;99061.66;;;13.52;58.90
68380;BME280;57711;53.196;19.638;2023-05-16T00:38:27;99060.90;;;13.49;59.07
68380;BME280;57711;53.196;19.638;2023-05-16T00:40:54;99059.13;;;13.48;59.12
68380;BME280;57711;53.196;19.638;2023-05-16T00:43:21;99056.36;;;13.45;59.00
68380;BME280;57711;53.196;19.638;2023-05-16T00:45:49;99054.06;;;13.43;59.28
68380;BME280;57711;53.196;19.638;2023-05-16T00:48:17;99050.45;;;13.39;59.13
68380;BME280;57711;53.196;19.638;2023-05-16T00:50:45;99051.73;;;13.41;59.24
68380;BME280;57711;53.196;19.638;2023-05-16T00:53:13;99049.45;;;13.43;59.26
68380;BME280;57711;53.196;19.638;2023-05-16T00:55:40;99044.17;;;13.43;59.24
68380;BME280;57711;53.196;19.638;2023-05-16T00:58:10;99046.89;;;13.42;59.20
68380;BME280;57711;53.196;19.638;2023-05-16T01:00:37;99053.32;;;13.41;59.32
68380;BME280;57711;53.196;19.638;2023-05-16T01:03:04;99054.17;;;13.39;59.28
68380;BME280;57711;53.196;19.638;2023-05-16T01:05:32;99054.45;;;13.36;59.31
68380;BME280;57711;53.196;19.638;2023-05-16T01:08:00;99055.21;;;13.36;59.30
68380;BME280;57711;53.196;19.638;2023-05-16T01:10:36;99057.95;;;13.37;59.53
68380;BME280;57711;53.196;19.638;2023-05-16T01:16:08;99062.17;;;13.34;59.35
68380;BME280;57711;53.196;19.638;2023-05-16T01:19:02;99063.13;;;13.34;59.42
68380;BME280;57711;53.196;19.638;2023-05-16T01:21:41;99059.44;;;13.31;59.42
68380;BME280;57711;53.196;19.638;2023-05-16T01:24:19;99061.98;;;13.29;59.39
68380;BME280;57711;53.196;19.638;2023-05-16T01:26:49;99063.36;;;13.29;59.47
68380;BME280;57711;53.196;19.638;2023-05-16T01:29:18;99066.23;;;13.29;59.52
68380;BME280;57711;53.196;19.638;2023-05-16T01:31:45;99066.08;;;13.27;59.62
68380;BME280;57711;53.196;19.638;2023-05-16T01:34:13;99066.68;;;13.25;59.58
68380;BME280;57711;53.196;19.638;2023-05-16T01:39:33;99066.16;;;13.26;59.69
68380;BME280;57711;53.196;19.638;2023-05-16T01:44:36;99064.97;;;13.28;59.73
68380;BME280;57711;53.196;19.638;2023-05-16T01:47:10;99065.05;;;13.25;59.60
68380;BME280;57711;53.196;19.638;2023-05-16T01:52:19;99067.39;;;13.22;59.85
68380;BME280;57711;53.196;19.638;2023-05-16T01:54:52;99069.98;;;13.21;59.83
68380;BME280;57711;53.196;19.638;2023-05-16T01:57:23;99075.43;;;13.21;59.86
68380;BME280;57711;53.196;19.638;2023-05-16T01:59:52;99078.13;;;13.20;59.69
68380;BME280;57711;53.196;19.638;2023-05-16T02:02:19;99080.67;;;13.17;59.56
68380;BME280;57711;53.196;19.638;2023-05-16T02:04:46;99082.83;;;13.13;59.72
68380;BME280;57711;53.196;19.638;2023-05-16T02:07:14;99084.73;;;13.10;59.89
68380;BME280;57711;53.196;19.638;2023-05-16T02:09:44;99089.18;;;13.08;59.83
68380;BME280;57711;53.196;19.638;2023-05-16T02:12:11;99088.11;;;13.07;59.93
68380;BME280;57711;53.196;19.638;2023-05-16T02:14:38;99088.31;;;13.05;59.78
68380;BME280;57711;53.196;19.638;2023-05-16T02:17:05;99090.17;;;13.03;59.83
68380;BME280;57711;53.196;19.638;2023-05-16T02:19:33;99091.10;;;13.01;60.08
68380;BME280;57711;53.196;19.638;2023-05-16T02:22:00;99082.97;;;12.98;59.78
68380;BME280;57711;53.196;19.638;2023-05-16T02:24:27;99089.02;;;12.94;59.79
68380;BME280;57711;53.196;19.638;2023-05-16T02:26:54;99089.02;;;12.93;59.87
68380;BME280;57711;53.196;19.638;2023-05-16T02:29:21;99089.08;;;12.91;60.00
68380;BME280;57711;53.196;19.638;2023-05-16T02:31:48;99090.60;;;12.87;59.80
68380;BME280;57711;53.196;19.638;2023-05-16T02:34:15;99090.23;;;12.85;60.03
68380;BME280;57711;53.196;19.638;2023-05-16T02:36:43;99092.05;;;12.82;59.99
68380;BME280;57711;53.196;19.638;2023-05-16T02:39:10;99089.29;;;12.79;59.92
68380;BME280;57711;53.196;19.638;2023-05-16T02:41:37;99091.65;;;12.78;60.03
68380;BME280;57711;53.196;19.638;2023-05-16T02:44:04;99098.17;;;12.78;59.97
68380;BME280;57711;53.196;19.638;2023-05-16T02:46:33;99101.63;;;12.76;60.02
68380;BME280;57711;53.196;19.638;2023-05-16T02:49:02;99097.80;;;12.73;59.96
68380;BME280;57711;53.196;19.638;2023-05-16T02:51:30;99099.00;;;12.73;60.15
68380;BME280;57711;53.196;19.638;2023-05-16T02:53:57;99095.56;;;12.72;60.08
68380;BME280;57711;53.196;19.638;2023-05-16T02:56:25;99097.01;;;12.76;60.14
68380;BME280;57711;53.196;19.638;2023-05-16T02:58:54;99096.09;;;12.74;60.18
68380;BME280;57711;53.196;19.638;2023-05-16T03:01:22;99098.45;;;12.73;60.33
68380;BME280;57711;53.196;19.638;2023-05-16T03:03:49;99100.77;;;12.71;60.05
68380;BME280;57711;53.196;19.638;2023-05-16T03:06:17;99101.38;;;12.71;60.41
68380;BME280;57711;53.196;19.638;2023-05-16T03:08:44;99103.89;;;12.71;60.24
68380;BME280;57711;53.196;19.638;2023-05-16T03:11:11;99103.33;;;12.70;60.37
68380;BME280;57711;53.196;19.638;2023-05-16T03:13:39;99105.55;;;12.69;60.23
68380;BME280;57711;53.196;19.638;2023-05-16T03:16:07;99106.16;;;12.67;60.30
68380;BME280;57711;53.196;19.638;2023-05-16T03:18:34;99110.15;;;12.64;60.40
68380;BME280;57711;53.196;19.638;2023-05-16T03:21:02;99108.27;;;12.61;60.33
68380;BME280;57711;53.196;19.638;2023-05-16T03:23:29;99109.36;;;12.61;60.37
68380;BME280;57711;53.196;19.638;2023-05-16T03:25:56;99112.97;;;12.62;60.38
68380;BME280;57711;53.196;19.638;2023-05-16T03:28:23;99112.41;;;12.61;60.43
68380;BME280;57711;53.196;19.638;2023-05-16T03:30:53;99117.45;;;12.62;60.39
68380;BME280;57711;53.196;19.638;2023-05-16T03:33:21;99117.29;;;12.60;60.33
68380;BME280;57711;53.196;19.638;2023-05-16T03:35:48;99118.52;;;12.59;60.44
68380;BME280;57711;53.196;19.638;2023-05-16T03:38:15;99123.34;;;12.60;60.65
68380;BME280;57711;53.196;19.638;2023-05-16T03:40:43;99124.45;;;12.61;60.47
68380;BME280;57711;53.196;19.638;2023-05-16T03:43:10;99130.13;;;12.62;60.52
68380;BME280;57711;53.196;19.638;2023-05-16T03:45:37;99129.75;;;12.59;60.64
68380;BME280;57711;53.196;19.638;2023-05-16T03:48:05;99130.80;;;12.56;60.63
68380;BME280;57711;53.196;19.638;2023-05-16T03:50:32;99132.61;;;12.55;60.69
68380;BME280;57711;53.196;19.638;2023-05-16T03:52:59;99132.40;;;12.57;60.58
68380;BME280;57711;53.196;19.638;2023-05-16T03:55:27;99131.35;;;12.56;60.80
68380;BME280;57711;53.196;19.638;2023-05-16T03:57:54;99139.02;;;12.55;60.72
68380;BME280;57711;53.196;19.638;2023-05-16T04:00:22;99137.41;;;12.52;60.72
68380;BME280;57711;53.196;19.638;2023-05-16T04:02:49;99139.36;;;12.53;60.80
68380;BME280;57711;53.196;19.638;2023-05-16T04:05:16;99144.53;;;12.52;60.83
68380;BME280;57711;53.196;19.638;2023-05-16T04:07:43;99147.83;;;12.52;60.89
68380;BME280;57711;53.196;19.638;2023-05-16T04:10:12;99153.34;;;12.51;60.93
68380;BME280;57711;53.196;19.638;2023-05-16T04:12:40;99155.45;;;12.50;60.92
68380;BME280;57711;53.196;19.638;2023-05-16T04:15:07;99155.77;;;12.47;60.97
68380;BME280;57711;53.196;19.638;2023-05-16T04:17:34;99156.77;;;12.45;60.78
68380;BME280;57711;53.196;19.638;2023-05-16T04:20:02;99159.62;;;12.44;61.00
68380;BME280;57711;53.196;19.638;2023-05-16T04:22:30;99163.93;;;12.44;61.06
68380;BME280;57711;53.196;19.638;2023-05-16T04:24:57;99162.23;;;12.44;60.99
68380;BME280;57711;53.196;19.638;2023-05-16T04:27:25;99166.92;;;12.46;61.08
68380;BME280;57711;53.196;19.638;2023-05-16T04:29:52;99166.48;;;12.45;61.09
68380;BME280;57711;53.196;19.638;2023-05-16T04:32:19;99169.80;;;12.42;61.05
68380;BME280;57711;53.196;19.638;2023-05-16T04:34:47;99171.26;;;12.40;61.04
68380;BME280;57711;53.196;19.638;2023-05-16T04:37:15;99179.79;;;12.40;61.04
68380;BME280;57711;53.196;19.638;2023-05-16T04:39:43;99182.30;;;12.39;61.03
68380;BME280;57711;53.196;19.638;2023-05-16T04:42:10;99185.55;;;12.37;61.05
68380;BME280;57711;53.196;19.638;2023-05-16T04:44:37;99188.02;;;12.39;61.25
68380;BME280;57711;53.196;19.638;2023-05-16T04:47:05;99195.09;;;12.43;61.11
68380;BME280;57711;53.196;19.638;2023-05-16T04:49:32;99194.67;;;12.41;61.17
68380;BME280;57711;53.196;19.638;2023-05-16T04:51:59;99199.30;;;12.44;61.34
68380;BME280;57711;53.196;19.638;2023-05-16T04:54:26;99201.63;;;12.46;61.47
68380;BME280;57711;53.196;19.638;2023-05-16T04:56:54;99204.52;;;12.49;61.20
68380;BME280;57711;53.196;19.638;2023-05-16T04:59:21;99209.50;;;12.50;61.26
68380;BME280;57711;53.196;19.638;2023-05-16T05:01:48;99213.02;;;12.48;61.36
68380;BME280;57711;53.196;19.638;2023-05-16T05:04:16;99211.99;;;12.45;61.29
68380;BME280;57711;53.196;19.638;2023-05-16T05:06:43;99216.22;;;12.45;61.38
68380;BME280;57711;53.196;19.638;2023-05-16T05:09:10;99218.05;;;12.45;61.30
68380;BME280;57711;53.196;19.638;2023-05-16T05:11:37;99223.80;;;12.45;61.21
68380;BME280;57711;53.196;19.638;2023-05-16T05:14:05;99235.45;;;12.46;61.45
68380;BME280;57711;53.196;19.638;2023-05-16T05:16:32;99239.33;;;12.47;61.27
68380;BME280;57711;53.196;19.638;2023-05-16T05:18:59;99245.82;;;12.46;61.26
68380;BME280;57711;53.196;19.638;2023-05-16T05:21:26;99258.61;;;12.43;61.19
68380;BME280;57711;53.196;19.638;2023-05-16T05:23:53;99267.80;;;12.43;61.36
68380;BME280;57711;53.196;19.638;2023-05-16T05:26:21;99271.30;;;12.40;61.26
68380;BME280;57711;53.196;19.638;2023-05-16T05:28:48;99274.30;;;12.38;61.36
68380;BME280;57711;53.196;19.638;2023-05-16T05:31:30;99277.84;;;12.32;61.29
68380;BME280;57711;53.196;19.638;2023-05-16T05:33:59;99279.88;;;12.29;61.23
68380;BME280;57711;53.196;19.638;2023-05-16T05:36:26;99287.93;;;12.28;61.61
68380;BME280;57711;53.196;19.638;2023-05-16T05:38:53;99288.89;;;12.29;61.59
68380;BME280;57711;53.196;19.638;2023-05-16T05:41:21;99294.22;;;12.28;61.58
68380;BME280;57711;53.196;19.638;2023-05-16T05:43:48;99295.65;;;12.27;61.58
68380;BME280;57711;53.196;19.638;2023-05-16T05:46:15;99297.04;;;12.26;61.51
68380;BME280;57711;53.196;19.638;2023-05-16T05:48:43;99300.08;;;12.28;61.55
68380;BME280;57711;53.196;19.638;2023-05-16T05:51:10;99300.16;;;12.30;61.61
68380;BME280;57711;53.196;19.638;2023-05-16T05:53:40;99307.40;;;12.31;61.43
68380;BME280;57711;53.196;19.638;2023-05-16T05:56:07;99309.89;;;12.29;61.59
68380;BME280;57711;53.196;19.638;2023-05-16T05:58:34;99307.64;;;12.30;61.52
68380;BME280;57711;53.196;19.638;2023-05-16T06:01:02;99308.32;;;12.34;61.60
68380;BME280;57711;53.196;19.638;2023-05-16T06:03:29;99310.55;;;12.38;61.65
68380;BME280;57711;53.196;19.638;2023-05-16T06:05:56;99312.90;;;12.41;61.68
68380;BME280;57711;53.196;19.638;2023-05-16T06:08:23;99324.35;;;12.44;61.68
68380;BME280;57711;53.196;19.638;2023-05-16T06:10:51;99329.65;;;12.45;61.67
68380;BME280;57711;53.196;19.638;2023-05-16T06:13:18;99331.27;;;12.47;61.76
68380;BME280;57711;53.196;19.638;2023-05-16T06:15:52;99336.89;;;12.51;61.74
68380;BME280;57711;53.196;19.638;2023-05-16T06:18:20;99331.95;;;12.54;61.56
68380;BME280;57711;53.196;19.638;2023-05-16T06:20:47;99336.08;;;12.56;61.61
68380;BME280;57711;53.196;19.638;2023-05-16T06:23:15;99337.02;;;12.53;61.58
68380;BME280;57711;53.196;19.638;2023-05-16T06:25:42;99340.56;;;12.50;61.84
68380;BME280;57711;53.196;19.638;2023-05-16T06:28:09;99346.65;;;12.51;61.64
68380;BME280;57711;53.196;19.638;2023-05-16T06:30:36;99351.40;;;12.54;61.68
68380;BME280;57711;53.196;19.638;2023-05-16T06:33:03;99356.41;;;12.58;61.84
68380;BME280;57711;53.196;19.638;2023-05-16T06:35:30;99359.38;;;12.59;61.65
68380;BME280;57711;53.196;19.638;2023-05-16T06:37:58;99365.05;;;12.58;61.67
68380;BME280;57711;53.196;19.638;2023-05-16T06:40:25;99373.27;;;12.59;61.62
68380;BME280;57711;53.196;19.638;2023-05-16T06:42:52;99378.41;;;12.62;62.03
68380;BME280;57711;53.196;19.638;2023-05-16T06:45:19;99379.40;;;12.63;61.85
68380;BME280;57711;53.196;19.638;2023-05-16T06:47:46;99379.40;;;12.63;61.95
68380;BME280;57711;53.196;19.638;2023-05-16T06:50:14;99385.14;;;12.63;61.98
68380;BME280;57711;53.196;19.638;2023-05-16T06:52:41;99381.50;;;12.68;61.99
68380;BME280;57711;53.196;19.638;2023-05-16T06:55:08;99387.34;;;12.74;61.96
68380;BME280;57711;53.196;19.638;2023-05-16T06:57:36;99399.61;;;12.78;61.92
68380;BME280;57711;53.196;19.638;2023-05-16T07:00:03;99401.83;;;12.79;61.77
68380;BME280;57711;53.196;19.638;2023-05-16T07:02:31;99407.85;;;12.79;61.95
68380;BME280;57711;53.196;19.638;2023-05-16T07:04:58;99409.88;;;12.82;62.03
68380;BME280;57711;53.196;19.638;2023-05-16T07:07:25;99418.27;;;12.89;61.93
68380;BME280;57711;53.196;19.638;2023-05-16T07:09:53;99422.06;;;12.92;62.10
68380;BME280;57711;53.196;19.638;2023-05-16T07:12:20;99428.60;;;12.93;62.03
68380;BME280;57711;53.196;19.638;2023-05-16T07:14:47;99428.54;;;12.95;62.08
68380;BME280;57711;53.196;19.638;2023-05-16T07:17:14;99431.16;;;12.95;61.90
68380;BME280;57711;53.196;19.638;2023-05-16T07:19:42;99436.40;;;12.95;61.98
68380;BME280;57711;53.196;19.638;2023-05-16T07:22:09;99441.90;;;12.96;61.98
68380;BME280;57711;53.196;19.638;2023-05-16T07:24:38;99443.52;;;12.98;61.94
68380;BME280;57711;53.196;19.638;2023-05-16T07:27:05;99447.48;;;12.99;61.87
68380;BME280;57711;53.196;19.638;2023-05-16T07:29:32;99453.91;;;13.01;61.85
68380;BME280;57711;53.196;19.638;2023-05-16T07:32:00;99457.06;;;13.00;62.01
68380;BME280;57711;53.196;19.638;2023-05-16T07:34:27;99455.54;;;13.02;61.82
68380;BME280;57711;53.196;19.638;2023-05-16T07:36:55;99455.69;;;13.09;62.02
68380;BME280;57711;53.196;19.638;2023-05-16T07:39:22;99462.48;;;13.18;62.12
68380;BME280;57711;53.196;19.638;2023-05-16T07:41:49;99466.23;;;13.27;62.24
68380;BME280;57711;53.196;19.638;2023-05-16T07:44:16;99467.58;;;13.34;62.20
68380;BME280;57711;53.196;19.638;2023-05-16T07:46:43;99467.02;;;13.49;62.20
68380;BME280;57711;53.196;19.638;2023-05-16T07:49:11;99476.59;;;13.62;62.28
68380;BME280;57711;53.196;19.638;2023-05-16T07:51:38;99482.30;;;13.71;62.22
68380;BME280;57711;53.196;19.638;2023-05-16T07:54:05;99488.20;;;13.76;61.98
68380;BME280;57711;53.196;19.638;2023-05-16T07:56:33;99486.34;;;13.82;62.09
68380;BME280;57711;53.196;19.638;2023-05-16T07:59:00;99484.23;;;13.87;62.10
68380;BME280;57711;53.196;19.638;2023-05-16T08:01:28;99490.16;;;13.91;61.91
68380;BME280;57711;53.196;19.638;2023-05-16T08:03:55;99495.05;;;13.92;62.11
68380;BME280;57711;53.196;19.638;2023-05-16T08:06:22;99505.23;;;13.94;61.99
68380;BME280;57711;53.196;19.638;2023-05-16T08:08:49;99508.77;;;13.96;62.02
68380;BME280;57711;53.196;19.638;2023-05-16T08:11:18;99508.21;;;14.05;62.20
68380;BME280;57711;53.196;19.638;2023-05-16T08:13:45;99511.66;;;14.17;62.15
68380;BME280;57711;53.196;19.638;2023-05-16T08:16:12;99517.59;;;14.35;62.11
68380;BME280;57711;53.196;19.638;2023-05-16T08:18:40;99518.23;;;14.46;62.26
68380;BME280;57711;53.196;19.638;2023-05-16T08:21:08;99513.20;;;14.55;62.20
68380;BME280;57711;53.196;19.638;2023-05-16T08:23:35;99520.86;;;14.62;62.07
68380;BME280;57711;53.196;19.638;2023-05-16T08:26:02;99523.57;;;14.68;61.93
68380;BME280;57711;53.196;19.638;2023-05-16T08:28:30;99530.70;;;14.72;61.98
68380;BME280;57711;53.196;19.638;2023-05-16T08:30:57;99533.30;;;14.73;61.92
68380;BME280;57711;53.196;19.638;2023-05-16T08:33:24;99536.40;;;14.72;61.82
68380;BME280;57711;53.196;19.638;2023-05-16T08:35:51;99536.67;;;14.70;61.80
68380;BME280;57711;53.196;19.638;2023-05-16T08:38:18;99542.30;;;14.65;61.73
68380;BME280;57711;53.196;19.638;2023-05-16T08:40:46;99542.35;;;14.62;61.72
68380;BME280;57711;53.196;19.638;2023-05-16T08:43:13;99546.42;;;14.59;61.62
68380;BME280;57711;53.196;19.638;2023-05-16T08:45:41;99555.73;;;14.57;61.72
68380;BME280;57711;53.196;19.638;2023-05-16T08:48:09;99562.15;;;14.54;61.60
68380;BME280;57711;53.196;19.638;2023-05-16T08:50:36;99566.45;;;14.48;61.60
68380;BME280;57711;53.196;19.638;2023-05-16T08:53:06;99566.06;;;14.44;61.55
68380;BME280;57711;53.196;19.638;2023-05-16T08:55:35;99569.84;;;14.45;61.67
68380;BME280;57711;53.196;19.638;2023-05-16T08:58:03;99567.52;;;14.53;61.61
68380;BME280;57711;53.196;19.638;2023-05-16T09:00:30;99560.91;;;14.60;61.85
68380;BME280;57711;53.196;19.638;2023-05-16T09:02:58;99562.06;;;14.67;61.74
68380;BME280;57711;53.196;19.638;2023-05-16T09:05:26;99564.06;;;14.75;61.79
68380;BME280;57711;53.196;19.638;2023-05-16T09:07:54;99566.84;;;14.82;61.87
68380;BME280;57711;53.196;19.638;2023-05-16T09:10:21;99569.96;;;14.90;61.81
68380;BME280;57711;53.196;19.638;2023-05-16T09:12:48;99575.05;;;14.98;61.72
68380;BME280;57711;53.196;19.638;2023-05-16T09:15:17;99583.17;;;15.05;61.86
68380;BME280;57711;53.196;19.638;2023-05-16T09:17:46;99588.90;;;15.11;61.67
68380;BME280;57711;53.196;19.638;2023-05-16T09:20:16;99594.52;;;15.15;61.69
68380;BME280;57711;53.196;19.638;2023-05-16T09:22:55;99594.36;;;15.23;61.63
68380;BME280;57711;53.196;19.638;2023-05-16T09:25:24;99600.69;;;15.39;61.76
68380;BME280;57711;53.196;19.638;2023-05-16T09:27:56;99608.39;;;15.47;61.37
68380;BME280;57711;53.196;19.638;2023-05-16T09:30:31;99612.30;;;15.47;61.36
68380;BME280;57711;53.196;19.638;2023-05-16T09:33:05;99611.48;;;15.34;60.91
68380;BME280;57711;53.196;19.638;2023-05-16T09:35:33;99618.14;;;15.20;60.98
68380;BME280;57711;53.196;19.638;2023-05-16T09:38:16;99622.67;;;15.12;61.28
68380;BME280;57711;53.196;19.638;2023-05-16T09:40:44;99629.58;;;15.09;61.56
68380;BME280;57711;53.196;19.638;2023-05-16T09:43:16;99633.61;;;15.15;61.64
68380;BME280;57711;53.196;19.638;2023-05-16T09:45:45;99632.36;;;15.25;61.61
68380;BME280;57711;53.196;19.638;2023-05-16T09:48:14;99632.33;;;15.34;61.45
68380;BME280;57711;53.196;19.638;2023-05-16T09:50:47;99628.61;;;15.37;61.45
68380;BME280;57711;53.196;19.638;2023-05-16T09:53:29;99627.80;;;15.56;61.59
68380;BME280;57711;53.196;19.638;2023-05-16T09:56:26;99632.46;;;15.73;61.49
68380;BME280;57711;53.196;19.638;2023-05-16T09:58:53;99634.81;;;15.99;61.74
68380;BME280;57711;53.196;19.638;2023-05-16T10:01:20;99633.48;;;16.25;61.49
68380;BME280;57711;53.196;19.638;2023-05-16T10:03:49;99635.57;;;16.45;61.38
68380;BME280;57711;53.196;19.638;2023-05-16T10:06:17;99625.30;;;16.56;61.10
68380;BME280;57711;53.196;19.638;2023-05-16T10:08:45;99626.30;;;16.59;60.90
68380;BME280;57711;53.196;19.638;2023-05-16T10:11:13;99629.88;;;16.65;61.03
68380;BME280;57711;53.196;19.638;2023-05-16T10:13:41;99639.52;;;16.65;60.99
68380;BME280;57711;53.196;19.638;2023-05-16T10:16:12;99645.57;;;16.57;60.79
68380;BME280;57711;53.196;19.638;2023-05-16T10:18:41;99649.82;;;16.43;60.64
68380;BME280;57711;53.196;19.638;2023-05-16T10:21:13;99649.22;;;16.27;60.59
68380;BME280;57711;53.196;19.638;2023-05-16T10:23:42;99657.45;;;16.14;60.95
68380;BME280;57711;53.196;19.638;2023-05-16T10:26:11;99664.20;;;16.06;60.93
68380;BME280;57711;53.196;19.638;2023-05-16T10:28:41;99676.17;;;16.00;60.88
68380;BME280;57711;53.196;19.638;2023-05-16T10:31:09;99685.01;;;15.97;60.93
68380;BME280;57711;53.196;19.638;2023-05-16T10:33:38;99684.17;;;16.03;61.13
68380;BME280;57711;53.196;19.638;2023-05-16T10:36:07;99682.23;;;16.10;60.94
68380;BME280;57711;53.196;19.638;2023-05-16T10:38:36;99681.23;;;16.13;60.93
68380;BME280;57711;53.196;19.638;2023-05-16T10:41:04;99686.01;;;16.07;60.82
68380;BME280;57711;53.196;19.638;2023-05-16T10:43:33;99687.51;;;15.98;60.58
68380;BME280;57711;53.196;19.638;2023-05-16T10:46:07;99692.94;;;15.95;60.76
68380;BME280;57711;53.196;19.638;2023-05-16T10:48:40;99693.73;;;15.98;60.98
68380;BME280;57711;53.196;19.638;2023-05-16T10:53:50;99704.23;;;16.01;60.82
68380;BME280;57711;53.196;19.638;2023-05-16T10:56:22;99704.18;;;16.06;60.73
68380;BME280;57711;53.196;19.638;2023-05-16T10:58:52;99703.48;;;16.10;60.78
68380;BME280;57711;53.196;19.638;2023-05-16T11:01:23;99703.65;;;16.14;60.83
68380;BME280;57711;53.196;19.638;2023-05-16T11:14:44;99723.64;;;16.71;60.81
68380;BME280;57711;53.196;19.638;2023-05-16T11:17:21;99727.23;;;17.10;60.97
68380;BME280;57711;53.196;19.638;2023-05-16T11:19:58;99731.25;;;17.42;60.82
68380;BME280;57711;53.196;19.638;2023-05-16T11:22:31;99735.13;;;17.49;60.33
68380;BME280;57711;53.196;19.638;2023-05-16T11:25:06;99738.13;;;17.45;60.37
68380;BME280;57711;53.196;19.638;2023-05-16T11:27:42;99740.90;;;17.45;60.40
68380;BME280;57711;53.196;19.638;2023-05-16T11:32:38;99741.23;;;17.74;60.52
68380;BME280;57711;53.196;19.638;2023-05-16T11:35:07;99751.58;;;17.79;60.19
68380;BME280;57711;53.196;19.638;2023-05-16T11:37:38;99759.97;;;17.73;59.98
68380;BME280;57711;53.196;19.638;2023-05-16T11:40:09;99767.31;;;17.67;59.99
68380;BME280;57711;53.196;19.638;2023-05-16T11:42:46;99766.16;;;17.65;59.86
68380;BME280;57711;53.196;19.638;2023-05-16T11:45:15;99767.98;;;17.74;60.13
68380;BME280;57711;53.196;19.638;2023-05-16T11:47:45;99770.73;;;17.80;59.94
68380;BME280;57711;53.196;19.638;2023-05-16T11:50:18;99776.84;;;17.70;59.71
68380;BME280;57711;53.196;19.638;2023-05-16T11:52:47;99783.46;;;17.66;59.87
68380;BME280;57711;53.196;19.638;2023-05-16T11:55:16;99784.94;;;17.58;59.71
68380;BME280;57711;53.196;19.638;2023-05-16T11:58:05;99787.02;;;17.49;59.71
68380;BME280;57711;53.196;19.638;2023-05-16T12:00:33;99789.22;;;17.44;59.73
68380;BME280;57711;53.196;19.638;2023-05-16T12:03:01;99787.92;;;17.43;59.87
68380;BME280;57711;53.196;19.638;2023-05-16T12:05:31;99784.86;;;17.46;59.79
68380;BME280;57711;53.196;19.638;2023-05-16T12:08:01;99780.77;;;17.49;59.87
68380;BME280;57711;53.196;19.638;2023-05-16T12:10:30;99783.81;;;17.51;59.93
68380;BME280;57711;53.196;19.638;2023-05-16T12:12:57;99789.04;;;17.53;59.57
68380;BME280;57711;53.196;19.638;2023-05-16T12:15:25;99796.16;;;17.50;59.70
68380;BME280;57711;53.196;19.638;2023-05-16T12:17:53;99795.47;;;17.37;59.58
68380;BME280;57711;53.196;19.638;2023-05-16T12:20:20;99796.95;;;17.23;59.35
68380;BME280;57711;53.196;19.638;2023-05-16T12:22:48;99803.89;;;17.11;59.35
68380;BME280;57711;53.196;19.638;2023-05-16T12:27:56;99810.31;;;16.91;59.44
68380;BME280;57711;53.196;19.638;2023-05-16T12:30:25;99810.91;;;16.81;59.40
68380;BME280;57711;53.196;19.638;2023-05-16T12:33:01;99814.58;;;16.71;59.44
68380;BME280;57711;53.196;19.638;2023-05-16T12:35:34;99811.89;;;16.63;59.43
68380;BME280;57711;53.196;19.638;2023-05-16T12:38:10;99827.77;;;16.56;59.52
68380;BME280;57711;53.196;19.638;2023-05-16T12:40:39;99826.90;;;16.52;59.47
68380;BME280;57711;53.196;19.638;2023-05-16T12:43:14;99833.72;;;16.51;59.49
68380;BME280;57711;53.196;19.638;2023-05-16T12:45:51;99838.16;;;16.51;59.50
68380;BME280;57711;53.196;19.638;2023-05-16T12:48:19;99839.10;;;16.49;59.43
68380;BME280;57711;53.196;19.638;2023-05-16T12:50:47;99838.46;;;16.45;59.38
68380;BME280;57711;53.196;19.638;2023-05-16T12:53:16;99840.78;;;16.41;59.43
68380;BME280;57711;53.196;19.638;2023-05-16T12:55:45;99841.89;;;16.36;59.39
68380;BME280;57711;53.196;19.638;2023-05-16T12:58:12;99842.48;;;16.33;59.59
68380;BME280;57711;53.196;19.638;2023-05-16T13:00:40;99849.98;;;16.31;59.58
68380;BME280;57711;53.196;19.638;2023-05-16T13:03:07;99854.53;;;16.30;59.56
68380;BME280;57711;53.196;19.638;2023-05-16T13:05:34;99856.14;;;16.28;59.48
68380;BME280;57711;53.196;19.638;2023-05-16T13:08:02;99864.66;;;16.26;59.53
68380;BME280;57711;53.196;19.638;2023-05-16T13:10:30;99861.03;;;16.28;59.59
68380;BME280;57711;53.196;19.638;2023-05-16T13:12:57;99862.73;;;16.32;59.58
68380;BME280;57711;53.196;19.638;2023-05-16T13:15:26;99861.64;;;16.39;59.49
68380;BME280;57711;53.196;19.638;2023-05-16T13:17:54;99859.51;;;16.55;59.66
68380;BME280;57711;53.196;19.638;2023-05-16T13:20:21;99854.17;;;16.75;59.64
68380;BME280;57711;53.196;19.638;2023-05-16T13:22:49;99855.95;;;16.94;59.50
68380;BME280;57711;53.196;19.638;2023-05-16T13:25:16;99858.73;;;17.06;59.33
68380;BME280;57711;53.196;19.638;2023-05-16T13:27:43;99859.08;;;17.12;59.43